createdAt,value
2022-09-01T00:00:11.994Z,16.00
2022-09-01T00:01:12.007Z,16.25
2022-09-01T00:02:12.041Z,16.30
2022-09-01T00:03:11.971Z,16.18
2022-09-01T00:04:11.995Z,16.04
2022-09-01T00:05:12.002Z,15.85
2022-09-01T00:06:11.963Z,15.92
2022-09-01T00:07:11.967Z,16.06
2022-09-01T00:08:12.018Z,16.25
2022-09-01T00:09:12.967Z,16.23
2022-09-01T00:10:12.036Z,16.23
2022-09-01T00:11:11.943Z,16.23
2022-09-01T00:12:11.974Z,16.26
2022-09-01T00:13:11.940Z,16.33
2022-09-01T00:14:30.896Z,16.20
2022-09-01T00:15:12.898Z,16.11
2022-09-01T00:16:11.994Z,15.75
2022-09-01T00:17:11.906Z,15.57
2022-09-01T00:18:11.940Z,15.61
2022-09-01T00:19:11.870Z,15.54
2022-09-01T00:20:11.884Z,15.38
2022-09-01T00:21:11.862Z,15.49
2022-09-01T00:22:11.889Z,15.35
2022-09-01T00:23:11.851Z,15.24
2022-09-01T00:24:11.910Z,15.11
2022-09-01T00:25:11.831Z,15.15
2022-09-01T00:26:11.844Z,14.99
2022-09-01T00:27:11.826Z,14.67
2022-09-01T00:28:11.869Z,14.78
2022-09-01T00:29:11.827Z,15.02
2022-09-01T00:30:11.808Z,14.81
2022-09-01T00:31:11.927Z,14.64
2022-09-01T00:32:11.823Z,14.50
2022-09-01T00:33:11.827Z,14.46
2022-09-01T00:34:11.810Z,14.53
2022-09-01T00:35:11.787Z,14.67
2022-09-01T00:36:11.763Z,14.47
2022-09-01T00:37:11.838Z,14.64
2022-09-01T00:38:11.821Z,14.62
2022-09-01T00:39:11.775Z,14.42
2022-09-01T00:40:11.779Z,14.28
2022-09-01T00:41:11.744Z,14.27
2022-09-01T00:42:11.738Z,14.21
2022-09-01T00:43:11.730Z,14.31
2022-09-01T00:44:11.720Z,14.32
2022-09-01T00:45:11.742Z,14.38
2022-09-01T00:46:11.743Z,14.31
2022-09-01T00:47:11.718Z,14.35
2022-09-01T00:48:11.737Z,14.34
2022-09-01T00:49:11.687Z,14.60
2022-09-01T00:50:11.666Z,14.56
2022-09-01T00:51:11.694Z,14.60
2022-09-01T00:52:11.680Z,14.64
2022-09-01T00:53:11.686Z,14.72
2022-09-01T00:54:11.647Z,14.64
2022-09-01T00:55:11.682Z,14.67
2022-09-01T00:56:11.639Z,14.86
2022-09-01T00:57:11.654Z,14.86
2022-09-01T00:58:19.684Z,14.95
2022-09-01T00:59:12.618Z,15.08
2022-09-01T01:00:11.704Z,15.11
2022-09-01T01:01:11.705Z,15.05
2022-09-01T01:02:11.691Z,15.06
2022-09-01T01:03:12.607Z,15.20
2022-09-01T01:04:11.569Z,15.17
2022-09-01T01:05:14.351Z,15.21
2022-09-01T01:06:11.563Z,15.21
2022-09-01T01:07:11.550Z,15.20
2022-09-01T01:08:11.665Z,15.11
2022-09-01T01:09:11.534Z,14.88
2022-09-01T01:10:11.554Z,14.75
2022-09-01T01:11:11.521Z,14.62
2022-09-01T01:12:11.558Z,14.62
2022-09-01T01:13:11.530Z,14.65
2022-09-01T01:14:11.504Z,14.57
2022-09-01T01:15:11.509Z,14.44
2022-09-01T01:16:11.594Z,14.25
2022-09-01T01:17:11.507Z,14.35
2022-09-01T01:18:11.479Z,14.38
2022-09-01T01:19:11.509Z,14.42
2022-09-01T01:20:11.475Z,14.42
2022-09-01T01:21:11.462Z,14.28
2022-09-01T01:22:11.494Z,14.17
2022-09-01T01:23:11.451Z,14.14
2022-09-01T01:24:11.456Z,14.02
2022-09-01T01:25:11.430Z,13.98
2022-09-01T01:26:11.454Z,14.02
2022-09-01T01:27:11.421Z,14.17
2022-09-01T01:28:11.496Z,14.20
2022-09-01T01:29:11.420Z,14.20
2022-09-01T01:30:11.406Z,14.02
2022-09-01T01:31:11.433Z,14.10
2022-09-01T01:32:11.434Z,14.06
2022-09-01T01:33:12.422Z,14.02
2022-09-01T01:34:11.409Z,13.92
2022-09-01T01:35:11.362Z,13.88
2022-09-01T01:36:11.370Z,13.98
2022-09-01T01:37:11.358Z,13.91
2022-09-01T01:38:11.356Z,13.77
2022-09-01T01:39:11.332Z,13.80
2022-09-01T01:40:11.344Z,13.61
2022-09-01T01:41:11.353Z,13.63
2022-09-01T01:42:11.341Z,13.70
2022-09-01T01:43:11.306Z,13.87
2022-09-01T01:44:11.331Z,13.70
2022-09-01T01:45:11.281Z,13.71
2022-09-01T01:46:11.384Z,13.84
2022-09-01T01:47:11.270Z,13.88
2022-09-01T01:48:11.292Z,13.84
2022-09-01T01:49:11.257Z,13.84
2022-09-01T01:50:11.302Z,13.80
2022-09-01T01:51:11.242Z,13.83
2022-09-01T01:52:11.245Z,13.84
2022-09-01T01:53:11.771Z,13.87
2022-09-01T01:54:11.217Z,13.84
2022-09-01T01:55:11.217Z,13.91
2022-09-01T01:56:11.205Z,13.92
2022-09-01T01:57:11.245Z,13.88
2022-09-01T01:58:11.236Z,13.96
2022-09-01T01:59:11.226Z,13.92
2022-09-01T02:00:11.174Z,13.91
2022-09-01T02:01:11.255Z,13.94
2022-09-01T02:02:11.212Z,13.98
2022-09-01T02:03:11.161Z,13.95
2022-09-01T02:04:11.179Z,13.63
2022-09-01T02:05:11.142Z,13.56
2022-09-01T02:06:11.158Z,13.51
2022-09-01T02:07:11.125Z,13.49
2022-09-01T02:08:11.128Z,13.46
2022-09-01T02:09:11.144Z,13.59
2022-09-01T02:10:11.105Z,13.56
2022-09-01T02:11:11.109Z,13.59
2022-09-01T02:12:11.097Z,13.55
2022-09-01T02:13:11.103Z,13.47
2022-09-01T02:14:11.089Z,13.41
2022-09-01T02:15:11.097Z,13.40
2022-09-01T02:16:11.082Z,13.32
2022-09-01T02:17:11.101Z,13.41
2022-09-01T02:18:11.060Z,13.32
2022-09-01T02:19:11.081Z,13.43
2022-09-01T02:20:11.037Z,13.56
2022-09-01T02:21:15.135Z,13.58
2022-09-01T02:22:13.021Z,13.55
2022-09-01T02:23:11.014Z,13.51
2022-09-01T02:24:11.077Z,13.47
2022-09-01T02:25:11.001Z,13.24
2022-09-01T02:26:18.265Z,13.14
2022-09-01T02:27:12.993Z,13.17
2022-09-01T02:28:10.977Z,13.14
2022-09-01T02:29:10.969Z,12.89
2022-09-01T02:30:10.981Z,12.88
2022-09-01T02:31:11.008Z,12.84
2022-09-01T02:32:10.971Z,12.95
2022-09-01T02:33:10.949Z,12.92
2022-09-01T02:34:10.993Z,13.18
2022-09-01T02:35:10.961Z,13.02
2022-09-01T02:36:10.916Z,13.14
2022-09-01T02:37:10.964Z,13.12
2022-09-01T02:38:10.905Z,13.18
2022-09-01T02:39:10.929Z,13.24
2022-09-01T02:40:10.960Z,13.33
2022-09-01T02:41:10.942Z,13.20
2022-09-01T02:42:10.873Z,13.11
2022-09-01T02:43:10.861Z,12.87
2022-09-01T02:44:10.900Z,12.81
2022-09-01T02:45:10.856Z,12.81
2022-09-01T02:46:11.004Z,12.77
2022-09-01T02:47:10.850Z,12.63
2022-09-01T02:48:10.833Z,12.71
2022-09-01T02:49:10.845Z,12.79
2022-09-01T02:50:10.821Z,12.82
2022-09-01T02:51:10.816Z,12.78
2022-09-01T02:52:10.813Z,12.69
2022-09-01T02:53:10.824Z,12.63
2022-09-01T02:54:10.793Z,12.60
2022-09-01T02:55:10.801Z,12.60
2022-09-01T02:56:10.833Z,12.59
2022-09-01T02:57:10.821Z,12.49
2022-09-01T02:58:10.761Z,12.42
2022-09-01T02:59:10.792Z,12.38
2022-09-01T03:00:10.753Z,12.29
2022-09-01T03:01:10.811Z,12.29
2022-09-01T03:02:10.738Z,12.39
2022-09-01T03:03:10.741Z,12.51
2022-09-01T03:04:10.736Z,12.46
2022-09-01T03:05:10.787Z,12.51
2022-09-01T03:06:10.732Z,12.52
2022-09-01T03:07:10.704Z,12.52
2022-09-01T03:08:10.717Z,12.38
2022-09-01T03:09:11.320Z,12.29
2022-09-01T03:10:10.685Z,12.31
2022-09-01T03:11:13.058Z,12.31
2022-09-01T03:12:11.678Z,12.38
2022-09-01T03:13:10.660Z,12.49
2022-09-01T03:14:10.692Z,12.42
2022-09-01T03:15:10.653Z,12.34
2022-09-01T03:16:10.700Z,12.38
2022-09-01T03:17:10.644Z,12.34
2022-09-01T03:18:10.641Z,12.46
2022-09-01T03:19:10.712Z,12.57
2022-09-01T03:20:10.623Z,12.60
2022-09-01T03:21:10.614Z,12.62
2022-09-01T03:22:10.654Z,12.78
2022-09-01T03:23:10.640Z,12.79
2022-09-01T03:24:10.614Z,12.70
2022-09-01T03:25:10.600Z,12.75
2022-09-01T03:26:10.584Z,12.81
2022-09-01T03:27:10.601Z,12.95
2022-09-01T03:28:10.588Z,12.87
2022-09-01T03:29:10.612Z,12.95
2022-09-01T03:30:10.569Z,12.78
2022-09-01T03:31:10.580Z,12.85
2022-09-01T03:32:10.624Z,12.62
2022-09-01T03:33:10.632Z,12.62
2022-09-01T03:34:10.557Z,12.77
2022-09-01T03:35:10.528Z,12.67
2022-09-01T03:36:14.703Z,12.82
2022-09-01T03:37:10.541Z,12.87
2022-09-01T03:38:10.521Z,12.79
2022-09-01T03:39:13.403Z,12.79
2022-09-01T03:40:12.538Z,12.81
2022-09-01T03:41:10.538Z,12.95
2022-09-01T03:42:10.510Z,12.82
2022-09-01T03:43:10.509Z,12.77
2022-09-01T03:44:10.508Z,12.62
2022-09-01T03:45:10.471Z,12.54
2022-09-01T03:46:10.515Z,12.44
2022-09-01T03:47:10.462Z,12.30
2022-09-01T03:48:10.491Z,12.48
2022-09-01T03:49:10.454Z,12.44
2022-09-01T03:50:10.520Z,12.42
2022-09-01T03:51:10.442Z,12.45
2022-09-01T03:52:10.435Z,12.45
2022-09-01T03:53:10.444Z,12.34
2022-09-01T03:54:10.423Z,12.30
2022-09-01T03:55:10.438Z,12.27
2022-09-01T03:56:10.418Z,12.30
2022-09-01T03:57:10.394Z,12.42
2022-09-01T03:58:10.410Z,12.31
2022-09-01T03:59:10.400Z,12.26
2022-09-01T04:00:10.418Z,12.34
2022-09-01T04:01:13.775Z,12.26
2022-09-01T04:02:10.421Z,12.21
2022-09-01T04:03:10.367Z,12.29
2022-09-01T04:04:10.360Z,12.30
2022-09-01T04:05:10.373Z,12.31
2022-09-01T04:06:10.374Z,12.38
2022-09-01T04:07:10.364Z,12.44
2022-09-01T04:08:11.353Z,12.31
2022-09-01T04:09:10.352Z,12.31
2022-09-01T04:10:10.336Z,12.21
2022-09-01T04:11:10.370Z,12.12
2022-09-01T04:12:10.318Z,12.04
2022-09-01T04:13:10.353Z,12.19
2022-09-01T04:14:10.351Z,12.29
2022-09-01T04:15:10.305Z,12.09
2022-09-01T04:16:10.447Z,11.97
2022-09-01T04:17:10.300Z,12.04
2022-09-01T04:18:10.279Z,11.94
2022-09-01T04:19:10.279Z,11.94
2022-09-01T04:20:10.273Z,11.94
2022-09-01T04:21:10.255Z,11.86
2022-09-01T04:22:10.338Z,11.96
2022-09-01T04:23:10.256Z,11.89
2022-09-01T04:24:10.236Z,11.86
2022-09-01T04:25:10.241Z,11.75
2022-09-01T04:26:10.237Z,11.72
2022-09-01T04:27:10.247Z,11.74
2022-09-01T04:28:10.208Z,11.68
2022-09-01T04:29:10.248Z,11.70
2022-09-01T04:30:10.212Z,11.75
2022-09-01T04:31:10.187Z,11.75
2022-09-01T04:32:10.232Z,11.89
2022-09-01T04:33:10.185Z,11.99
2022-09-01T04:34:10.180Z,12.09
2022-09-01T04:35:10.201Z,12.15
2022-09-01T04:36:10.160Z,12.26
2022-09-01T04:37:10.181Z,12.29
2022-09-01T04:38:10.172Z,12.34
2022-09-01T04:39:10.148Z,12.31
2022-09-01T04:40:10.186Z,12.38
2022-09-01T04:41:10.120Z,12.31
2022-09-01T04:42:10.129Z,12.49
2022-09-01T04:43:10.137Z,12.59
2022-09-01T04:44:10.177Z,12.62
2022-09-01T04:45:11.083Z,12.69
2022-09-01T04:46:10.142Z,12.78
2022-09-01T04:47:10.092Z,12.82
2022-09-01T04:48:10.092Z,12.85
2022-09-01T04:49:10.288Z,12.84
2022-09-01T04:50:10.077Z,12.97
2022-09-01T04:51:10.131Z,12.97
2022-09-01T04:52:10.060Z,12.87
2022-09-01T04:53:10.132Z,12.84
2022-09-01T04:54:10.069Z,12.85
2022-09-01T04:55:10.058Z,12.69
2022-09-01T04:56:10.101Z,12.64
2022-09-01T04:57:10.029Z,12.48
2022-09-01T04:58:10.417Z,12.38
2022-09-01T04:59:11.042Z,12.16
2022-09-01T05:00:10.026Z,12.13
2022-09-01T05:01:10.076Z,12.09
2022-09-01T05:02:10.042Z,12.09
2022-09-01T05:03:10.043Z,12.15
2022-09-01T05:04:10.041Z,12.12
2022-09-01T05:05:09.981Z,12.16
2022-09-01T05:06:09.974Z,12.27
2022-09-01T05:07:09.974Z,12.41
2022-09-01T05:08:10.009Z,12.44
2022-09-01T05:09:09.993Z,12.57
2022-09-01T05:10:09.957Z,12.70
2022-09-01T05:11:09.999Z,12.81
2022-09-01T05:12:09.937Z,12.88
2022-09-01T05:13:10.949Z,13.07
2022-09-01T05:14:09.983Z,13.24
2022-09-01T05:15:09.914Z,13.24
2022-09-01T05:16:09.992Z,13.36
2022-09-01T05:17:09.914Z,13.49
2022-09-01T05:18:09.944Z,13.47
2022-09-01T05:19:09.969Z,13.61
2022-09-01T05:20:09.985Z,13.73
2022-09-01T05:21:09.991Z,13.79
2022-09-01T05:22:09.942Z,13.73
2022-09-01T05:23:10.283Z,13.69
2022-09-01T05:24:10.858Z,13.74
2022-09-01T05:25:09.889Z,13.63
2022-09-01T05:26:09.848Z,13.94
2022-09-01T05:27:09.825Z,13.84
2022-09-01T05:28:10.844Z,13.71
2022-09-01T05:29:09.857Z,13.87
2022-09-01T05:30:09.821Z,13.91
2022-09-01T05:31:09.874Z,13.92
2022-09-01T05:32:09.800Z,13.96
2022-09-01T05:33:09.813Z,14.06
2022-09-01T05:34:10.263Z,14.19
2022-09-01T05:35:09.798Z,14.16
2022-09-01T05:36:09.782Z,14.20
2022-09-01T05:37:09.847Z,14.24
2022-09-01T05:38:09.804Z,14.34
2022-09-01T05:39:09.855Z,14.42
2022-09-01T05:40:09.880Z,14.49
2022-09-01T05:41:09.762Z,14.65
2022-09-01T05:42:09.837Z,14.74
2022-09-01T05:43:09.827Z,14.75
2022-09-01T05:44:09.733Z,14.56
2022-09-01T05:45:09.711Z,14.47
2022-09-01T05:46:09.723Z,14.46
2022-09-01T05:47:09.721Z,14.42
2022-09-01T05:48:11.286Z,14.35
2022-09-01T05:49:09.706Z,14.46
2022-09-01T05:50:13.644Z,14.49
2022-09-01T05:51:27.358Z,14.54
2022-09-01T05:52:11.694Z,14.53
2022-09-01T05:53:12.840Z,14.60
2022-09-01T05:54:09.681Z,14.54
2022-09-01T05:55:09.700Z,14.62
2022-09-01T05:56:09.650Z,14.71
2022-09-01T05:57:32.804Z,14.93
2022-09-01T05:58:11.710Z,14.93
2022-09-01T05:59:26.019Z,14.88
2022-09-01T06:00:11.624Z,14.93
2022-09-01T06:01:09.628Z,14.68
2022-09-01T06:02:09.714Z,14.80
2022-09-01T06:03:09.738Z,14.88
2022-09-01T06:04:10.592Z,14.95
2022-09-01T06:05:09.579Z,14.99
2022-09-01T06:06:09.563Z,15.09
2022-09-01T06:07:11.836Z,15.20
2022-09-01T06:08:11.554Z,15.24
2022-09-01T06:09:09.575Z,15.42
2022-09-01T06:10:09.544Z,15.45
2022-09-01T06:11:09.533Z,15.64
2022-09-01T06:12:09.534Z,15.52
2022-09-01T06:13:09.507Z,15.79
2022-09-01T06:14:09.501Z,15.93
2022-09-01T06:15:09.526Z,16.06
2022-09-01T06:16:09.528Z,16.20
2022-09-01T06:17:09.502Z,16.42
2022-09-01T06:18:09.546Z,16.42
2022-09-01T06:19:09.470Z,16.30
2022-09-01T06:20:09.485Z,16.12
2022-09-01T06:21:09.478Z,16.12
2022-09-01T06:22:09.451Z,16.18
2022-09-01T06:23:09.456Z,16.26
2022-09-01T06:24:09.466Z,16.22
2022-09-01T06:25:09.445Z,16.18
2022-09-01T06:26:09.454Z,16.33
2022-09-01T06:27:09.458Z,16.41
2022-09-01T06:28:09.735Z,16.42
2022-09-01T06:29:09.414Z,16.63
2022-09-01T06:30:09.415Z,16.73
2022-09-01T06:31:09.578Z,16.73
2022-09-01T06:32:09.387Z,16.85
2022-09-01T06:33:09.427Z,16.96
2022-09-01T06:34:09.408Z,17.18
2022-09-01T06:35:09.387Z,17.10
2022-09-01T06:36:09.356Z,17.06
2022-09-01T06:37:09.364Z,17.48
2022-09-01T06:38:09.358Z,17.38
2022-09-01T06:39:09.373Z,17.43
2022-09-01T06:40:09.413Z,17.35
2022-09-01T06:41:09.581Z,17.47
2022-09-01T06:42:09.334Z,17.59
2022-09-01T06:43:09.342Z,17.81
2022-09-01T06:44:14.322Z,17.81
2022-09-01T06:45:11.299Z,17.76
2022-09-01T06:46:09.358Z,17.59
2022-09-01T06:47:09.324Z,17.70
2022-09-01T06:48:09.299Z,17.99
2022-09-01T06:49:09.338Z,18.09
2022-09-01T06:50:09.275Z,18.22
2022-09-01T06:51:18.335Z,18.39
2022-09-01T06:52:11.278Z,18.43
2022-09-01T06:54:14.611Z,18.52
2022-09-01T06:55:10.233Z,18.31
2022-09-01T06:56:09.250Z,18.59
2022-09-01T06:58:13.931Z,18.72
2022-09-01T06:59:09.222Z,18.79
2022-09-01T07:00:09.237Z,18.58
2022-09-01T07:01:09.222Z,18.59
2022-09-01T07:02:13.946Z,18.86
2022-09-01T07:03:11.183Z,18.70
2022-09-01T07:04:12.839Z,18.86
2022-09-01T07:05:59.707Z,18.98
2022-09-01T07:06:58.706Z,19.20
2022-09-01T07:08:11.147Z,19.15
2022-09-01T07:09:38.641Z,19.06
2022-09-01T07:10:21.185Z,19.06
2022-09-01T07:12:26.781Z,19.25
2022-09-01T07:13:11.141Z,19.25
2022-09-01T07:14:16.216Z,19.39
2022-09-01T07:17:26.362Z,19.54
2022-09-01T07:18:11.125Z,19.40
2022-09-01T07:19:09.085Z,19.58
2022-09-01T07:20:25.875Z,19.63
2022-09-01T07:21:38.820Z,19.53
2022-09-01T07:22:35.298Z,19.57
2022-09-01T07:23:10.077Z,19.63
2022-09-01T07:24:10.479Z,19.66
2022-09-01T07:25:12.123Z,19.47
2022-09-01T07:26:10.072Z,19.48
2022-09-01T07:27:09.267Z,19.72
2022-09-01T07:28:09.021Z,20.09
2022-09-01T07:29:09.068Z,20.65
2022-09-01T07:30:09.036Z,21.59
2022-09-01T07:34:40.139Z,22.39
2022-09-01T07:36:25.815Z,23.67
2022-09-01T07:38:47.244Z,25.10
2022-09-01T07:43:10.915Z,26.18
2022-09-01T07:44:08.903Z,27.06
2022-09-01T07:48:10.919Z,27.95
2022-09-01T07:50:25.411Z,28.16
2022-09-01T07:52:10.867Z,27.98
2022-09-01T07:53:08.859Z,28.51
2022-09-01T07:54:08.849Z,27.57
2022-09-01T07:55:08.841Z,27.01
2022-09-01T07:56:08.837Z,26.99
2022-09-01T07:57:08.829Z,26.28
2022-09-01T07:58:08.854Z,25.94
2022-09-01T07:59:08.848Z,27.06
2022-09-01T08:00:08.801Z,26.94
2022-09-01T08:01:08.825Z,26.84
2022-09-01T08:02:08.829Z,27.59
2022-09-01T08:03:08.825Z,27.73
2022-09-01T08:04:08.778Z,27.48
2022-09-01T08:05:08.774Z,27.32
2022-09-01T08:06:08.803Z,27.26
2022-09-01T08:07:08.746Z,27.79
2022-09-01T08:08:28.670Z,28.54
2022-09-01T08:09:11.628Z,28.16
2022-09-01T08:10:08.729Z,27.32
2022-09-01T08:11:09.753Z,27.77
2022-09-01T08:12:08.755Z,27.59
2022-09-01T08:13:15.350Z,27.85
2022-09-01T08:14:10.445Z,27.36
2022-09-01T08:16:18.444Z,28.22
2022-09-01T08:17:18.121Z,28.40
2022-09-01T08:18:14.178Z,28.97
2022-09-01T08:19:16.633Z,28.07
2022-09-01T08:20:14.107Z,27.98
2022-09-01T08:21:08.651Z,28.73
2022-09-01T08:22:08.803Z,29.72
2022-09-01T08:23:08.699Z,29.47
2022-09-01T08:24:08.690Z,29.78
2022-09-01T08:25:08.839Z,29.72
2022-09-01T08:26:08.635Z,30.02
2022-09-01T08:27:08.700Z,29.96
2022-09-01T08:28:08.654Z,29.79
2022-09-01T08:29:08.626Z,29.75
2022-09-01T08:30:52.493Z,29.71
2022-09-01T08:31:11.179Z,29.13
2022-09-01T08:32:09.654Z,29.04
2022-09-01T08:33:11.650Z,29.52
2022-09-01T08:34:09.621Z,29.78
2022-09-01T08:35:09.390Z,30.31
2022-09-01T08:36:08.588Z,29.20
2022-09-01T08:37:08.593Z,29.70
2022-09-01T08:38:08.626Z,30.16
2022-09-01T08:39:08.559Z,30.21
2022-09-01T08:40:08.586Z,29.45
2022-09-01T08:41:08.541Z,29.23
2022-09-01T08:42:08.648Z,28.97
2022-09-01T08:43:13.200Z,28.80
2022-09-01T08:44:09.542Z,28.93
2022-09-01T08:45:08.538Z,28.33
2022-09-01T08:46:08.558Z,28.75
2022-09-01T08:47:13.618Z,28.96
2022-09-01T08:49:02.697Z,28.70
2022-09-01T08:49:24.656Z,29.59
2022-09-01T08:50:10.490Z,29.60
2022-09-01T08:51:14.108Z,30.67
2022-09-01T08:52:10.477Z,30.40
2022-09-01T08:53:09.717Z,30.27
2022-09-01T08:54:09.491Z,30.40
2022-09-01T08:55:08.442Z,30.76
2022-09-01T08:56:08.593Z,31.39
2022-09-01T08:57:08.431Z,32.42
2022-09-01T08:58:09.788Z,31.82
2022-09-01T08:59:08.465Z,31.38
2022-09-01T09:00:08.420Z,30.47
2022-09-01T09:01:08.514Z,30.50
2022-09-01T09:02:09.336Z,31.26
2022-09-01T09:03:08.816Z,32.52
2022-09-01T09:04:08.404Z,33.65
2022-09-01T09:05:15.919Z,33.14
2022-09-01T09:06:10.400Z,32.84
2022-09-01T09:07:08.381Z,33.29
2022-09-01T09:08:08.368Z,32.30
2022-09-01T09:09:08.375Z,31.33
2022-09-01T09:10:08.376Z,30.87
2022-09-01T09:11:08.384Z,31.54
2022-09-01T09:12:08.704Z,31.87
2022-09-01T09:13:10.224Z,32.00
2022-09-01T09:14:08.369Z,31.46
2022-09-01T09:15:08.376Z,31.04
2022-09-01T09:16:08.853Z,31.27
2022-09-01T09:17:09.364Z,31.36
2022-09-01T09:18:20.268Z,30.89
2022-09-01T09:19:09.328Z,29.99
2022-09-01T09:20:09.279Z,29.90
2022-09-01T09:21:08.333Z,31.01
2022-09-01T09:22:08.359Z,31.40
2022-09-01T09:23:08.521Z,31.76
2022-09-01T09:24:08.343Z,32.15
2022-09-01T09:25:08.372Z,32.61
2022-09-01T09:26:08.431Z,32.30
2022-09-01T09:27:09.725Z,32.61
2022-09-01T09:28:08.286Z,32.77
2022-09-01T09:29:08.275Z,32.33
2022-09-01T09:30:11.178Z,32.58
2022-09-01T09:31:09.308Z,30.69
2022-09-01T09:32:22.486Z,29.60
2022-09-01T09:33:44.293Z,30.56
2022-09-01T09:34:10.835Z,31.75
2022-09-01T09:35:08.260Z,32.76
2022-09-01T09:36:08.245Z,32.85
2022-09-01T09:37:08.236Z,31.48
2022-09-01T09:38:08.358Z,29.96
2022-09-01T09:39:08.243Z,29.25
2022-09-01T09:40:10.072Z,30.56
2022-09-01T09:41:18.816Z,32.17
2022-09-01T09:42:10.249Z,33.30
2022-09-01T09:43:08.211Z,33.53
2022-09-01T09:44:11.280Z,33.30
2022-09-01T09:45:09.917Z,33.98
2022-09-01T09:46:23.414Z,34.64
2022-09-01T09:47:27.287Z,32.85
2022-09-01T09:48:10.989Z,31.12
2022-09-01T09:49:08.160Z,32.30
2022-09-01T09:50:08.150Z,33.34
2022-09-01T09:51:08.198Z,33.01
2022-09-01T09:52:08.206Z,31.24
2022-09-01T09:53:08.142Z,29.74
2022-09-01T09:54:08.119Z,28.77
2022-09-01T09:55:09.122Z,28.50
2022-09-01T09:56:08.134Z,27.74
2022-09-01T09:57:08.137Z,28.91
2022-09-01T09:58:08.106Z,30.27
2022-09-01T09:59:08.101Z,31.84
2022-09-01T10:00:08.101Z,32.18
2022-09-01T10:01:08.165Z,32.17
2022-09-01T10:02:08.118Z,32.91
2022-09-01T10:03:10.227Z,32.70
2022-09-01T10:04:08.294Z,33.46
2022-09-01T10:05:08.075Z,33.03
2022-09-01T10:06:08.070Z,33.52
2022-09-01T10:07:08.065Z,33.97
2022-09-01T10:08:08.048Z,33.57
2022-09-01T10:09:08.104Z,32.84
2022-09-01T10:10:09.037Z,32.06
2022-09-01T10:11:08.287Z,31.48
2022-09-01T10:12:08.711Z,30.87
2022-09-01T10:13:08.006Z,30.21
2022-09-01T10:14:08.055Z,30.78
2022-09-01T10:15:12.735Z,29.79
2022-09-01T10:16:09.418Z,29.59
2022-09-01T10:17:09.108Z,29.13
2022-09-01T10:18:28.991Z,29.01
2022-09-01T10:19:12.585Z,28.25
2022-09-01T10:20:07.986Z,28.17
2022-09-01T10:21:07.961Z,27.59
2022-09-01T10:22:08.036Z,27.50
2022-09-01T10:23:14.867Z,27.46
2022-09-01T10:24:26.993Z,27.29
2022-09-01T10:25:10.838Z,27.21
2022-09-01T10:26:09.552Z,26.98
2022-09-01T10:27:14.296Z,26.74
2022-09-01T10:28:09.983Z,26.58
2022-09-01T10:29:08.402Z,26.43
2022-09-01T10:30:19.162Z,26.44
2022-09-01T10:31:09.972Z,26.32
2022-09-01T10:32:31.396Z,26.59
2022-09-01T10:33:19.286Z,26.46
2022-09-01T10:34:09.899Z,26.35
2022-09-01T10:35:07.906Z,28.22
2022-09-01T10:36:08.032Z,28.68
2022-09-01T10:37:10.546Z,28.63
2022-09-01T10:38:08.881Z,28.46
2022-09-01T10:39:09.173Z,28.14
2022-09-01T10:40:08.937Z,29.55
2022-09-01T10:41:08.842Z,28.60
2022-09-01T10:42:08.844Z,28.06
2022-09-01T10:43:12.434Z,28.13
2022-09-01T10:44:07.847Z,27.79
2022-09-01T10:45:07.863Z,27.73
2022-09-01T10:46:09.141Z,27.09
2022-09-01T10:47:13.594Z,28.50
2022-09-01T10:48:13.037Z,30.43
2022-09-01T10:49:08.240Z,29.74
2022-09-01T10:50:10.017Z,28.38
2022-09-01T10:51:08.828Z,27.94
2022-09-01T10:52:13.239Z,27.94
2022-09-01T10:53:09.803Z,27.89
2022-09-01T10:54:08.349Z,27.33
2022-09-01T10:55:07.817Z,27.39
2022-09-01T10:56:18.774Z,27.23
2022-09-01T10:57:12.287Z,27.50
2022-09-01T10:59:29.891Z,27.54
2022-09-01T11:00:34.754Z,27.28
2022-09-01T11:01:11.195Z,27.62
2022-09-01T11:02:27.558Z,28.13
2022-09-01T11:04:10.326Z,27.21
2022-09-01T11:05:07.744Z,29.03
2022-09-01T11:06:14.881Z,30.80
2022-09-01T11:07:12.881Z,31.75
2022-09-01T11:08:15.826Z,32.86
2022-09-01T11:09:09.713Z,33.55
2022-09-01T11:10:11.377Z,33.83
2022-09-01T11:11:09.699Z,32.55
2022-09-01T11:12:07.689Z,31.92
2022-09-01T11:13:07.658Z,30.72
2022-09-01T11:14:09.420Z,29.50
2022-09-01T11:15:07.662Z,28.53
2022-09-01T11:16:07.701Z,27.85
2022-09-01T11:17:07.801Z,27.89
2022-09-01T11:18:08.478Z,28.25
2022-09-01T11:19:14.015Z,27.88
2022-09-01T11:20:09.617Z,29.25
2022-09-01T11:21:08.605Z,29.65
2022-09-01T11:22:07.604Z,28.93
2022-09-01T11:23:07.592Z,28.70
2022-09-01T11:24:07.667Z,29.01
2022-09-01T11:25:12.134Z,29.59
2022-09-01T11:26:23.951Z,31.28
2022-09-01T11:27:09.593Z,31.96
2022-09-01T11:28:07.557Z,32.55
2022-09-01T11:29:07.566Z,32.95
2022-09-01T11:30:08.450Z,33.52
2022-09-01T11:31:09.044Z,34.36
2022-09-01T11:32:07.661Z,35.23
2022-09-01T11:33:07.641Z,35.33
2022-09-01T11:34:07.540Z,34.84
2022-09-01T11:35:07.564Z,35.15
2022-09-01T11:36:07.557Z,34.58
2022-09-01T11:37:07.739Z,34.54
2022-09-01T11:38:07.550Z,34.72
2022-09-01T11:39:07.503Z,34.64
2022-09-01T11:40:07.584Z,35.06
2022-09-01T11:41:07.523Z,35.69
2022-09-01T11:42:08.464Z,34.23
2022-09-01T11:43:09.729Z,34.48
2022-09-01T11:44:08.478Z,32.10
2022-09-01T11:45:07.478Z,31.43
2022-09-01T11:46:07.500Z,30.61
2022-09-01T11:47:12.008Z,31.72
2022-09-01T11:48:09.442Z,31.67
2022-09-01T11:49:07.435Z,31.42
2022-09-01T11:50:07.440Z,31.70
2022-09-01T11:51:07.444Z,32.79
2022-09-01T11:52:08.452Z,33.43
2022-09-01T11:53:07.452Z,34.19
2022-09-01T11:54:07.452Z,35.35
2022-09-01T11:55:07.416Z,35.02
2022-09-01T11:56:08.429Z,34.26
2022-09-01T11:57:07.431Z,32.11
2022-09-01T11:58:07.403Z,30.91
2022-09-01T11:59:07.404Z,29.94
2022-09-01T12:00:07.418Z,29.19
2022-09-01T12:01:07.444Z,28.41
2022-09-01T12:02:07.434Z,28.26
2022-09-01T12:03:07.480Z,28.32
2022-09-01T12:04:07.429Z,28.23
2022-09-01T12:05:07.341Z,27.91
2022-09-01T12:06:08.799Z,27.84
2022-09-01T12:07:08.040Z,28.01
2022-09-01T12:08:07.348Z,28.06
2022-09-01T12:09:07.339Z,28.10
2022-09-01T12:10:07.332Z,28.97
2022-09-01T12:11:07.331Z,29.97
2022-09-01T12:12:07.305Z,31.33
2022-09-01T12:13:07.320Z,32.02
2022-09-01T12:14:11.133Z,32.10
2022-09-01T12:15:08.330Z,31.28
2022-09-01T12:16:18.499Z,30.23
2022-09-01T12:17:09.358Z,29.55
2022-09-01T12:18:07.308Z,28.97
2022-09-01T12:19:07.279Z,28.44
2022-09-01T12:20:07.319Z,29.13
2022-09-01T12:21:07.273Z,30.65
2022-09-01T12:22:07.262Z,31.76
2022-09-01T12:23:07.283Z,33.26
2022-09-01T12:24:07.248Z,33.61
2022-09-01T12:25:07.250Z,33.11
2022-09-01T12:26:07.243Z,33.15
2022-09-01T12:27:07.235Z,33.94
2022-09-01T12:28:07.218Z,34.19
2022-09-01T12:29:07.210Z,34.45
2022-09-01T12:30:07.228Z,34.32
2022-09-01T12:31:07.399Z,33.74
2022-09-01T12:32:07.269Z,33.79
2022-09-01T12:34:09.175Z,34.26
2022-09-01T12:35:11.287Z,35.47
2022-09-01T12:36:08.169Z,36.04
2022-09-01T12:37:07.169Z,36.11
2022-09-01T12:38:09.643Z,36.21
2022-09-01T12:39:08.169Z,35.82
2022-09-01T12:40:07.765Z,34.32
2022-09-01T12:41:07.587Z,33.45
2022-09-01T12:42:07.169Z,31.57
2022-09-01T12:43:07.897Z,30.40
2022-09-01T12:44:07.114Z,29.59
2022-09-01T12:45:09.066Z,29.38
2022-09-01T12:46:07.134Z,29.55
2022-09-01T12:47:07.153Z,30.09
2022-09-01T12:48:07.142Z,31.01
2022-09-01T12:49:07.154Z,31.64
2022-09-01T12:50:07.093Z,31.80
2022-09-01T12:51:09.287Z,31.99
2022-09-01T12:52:07.068Z,32.69
2022-09-01T12:53:08.430Z,32.17
2022-09-01T12:54:09.445Z,32.33
2022-09-01T12:55:07.072Z,33.26
2022-09-01T12:56:07.036Z,34.07
2022-09-01T12:57:07.073Z,33.98
2022-09-01T12:58:07.029Z,33.74
2022-09-01T12:59:09.603Z,32.39
2022-09-01T13:00:09.012Z,32.59
2022-09-01T13:01:08.766Z,33.41
2022-09-01T13:02:08.451Z,33.82
2022-09-01T13:03:08.278Z,33.31
2022-09-01T13:04:07.073Z,33.55
2022-09-01T13:05:07.039Z,33.86
2022-09-01T13:06:08.004Z,34.26
2022-09-01T13:07:07.625Z,34.13
2022-09-01T13:08:07.666Z,34.11
2022-09-01T13:09:06.956Z,34.24
2022-09-01T13:10:07.512Z,34.24
2022-09-01T13:11:06.975Z,33.23
2022-09-01T13:12:07.636Z,32.59
2022-09-01T13:13:06.980Z,32.36
2022-09-01T13:14:06.925Z,32.74
2022-09-01T13:15:07.927Z,33.48
2022-09-01T13:16:06.977Z,32.62